This is the latest recevied weather packets stored in our database for station/object KD2ZLA. If no packets are shown the sender has not sent any weather packets the latest 10 day(s).
| Time | Temp. | Humidity | Pressure | Rain* | Wind** | Luminosity | Snow |
|---|---|---|---|---|---|---|---|
| 1777987171 | 20° C | 62% | 1000.6 hPa | 0 mm | - | 469 W/m² | - |
| 1777986868 | 19.44° C | 64% | 1000.5 hPa | 0 mm | - | 476 W/m² | - |
| 1777986566 | 18.89° C | 66% | 1000.6 hPa | 0 mm | - | 345 W/m² | - |
| 1777986264 | 18.33° C | 69% | 1000.8 hPa | 0 mm | - | 382 W/m² | - |
| 1777985961 | 17.78° C | 71% | 1000.9 hPa | 0 mm | - | 324 W/m² | - |
| 1777985659 | 16.67° C | 75% | 1001 hPa | 0 mm | - | 284 W/m² | - |
| 1777985355 | 16.11° C | 78% | 1001.2 hPa | 0 mm | - | 143 W/m² | - |
| 1777985052 | 16.11° C | 79% | 1001.2 hPa | 0.51 mm | - | 110 W/m² | - |
| 1777984748 | 16.11° C | 79% | 1001.1 hPa | 0.51 mm | - | 72 W/m² | - |
| 1777984445 | 16.11° C | 77% | 1001.4 hPa | 1.78 mm | - | 80 W/m² | - |
| 1777984140 | 16.67° C | 75% | 1001.2 hPa | 1.78 mm | - | 100 W/m² | - |
| 1777983838 | 17.78° C | 66% | 1001.3 hPa | 0 mm | - | 62 W/m² | - |
| 1777983534 | 17.78° C | 65% | 1001 hPa | 0 mm | - | 157 W/m² | - |
| 1777983232 | 17.78° C | 65% | 1000.8 hPa | 0 mm | - | 106 W/m² | - |
| 1777982927 | 17.78° C | 66% | 1000.8 hPa | 0 mm | - | 96 W/m² | - |
| 1777982624 | 17.78° C | 67% | 1001.1 hPa | 0 mm | - | 129 W/m² | - |
| 1777982322 | 17.22° C | 69% | 1000.9 hPa | 0 mm | - | 301 W/m² | - |
| 1777982020 | 16.67° C | 71% | 1001.1 hPa | 0 mm | - | 225 W/m² | - |
| 1777981718 | 16.11° C | 72% | 1001.1 hPa | 0 mm | - | 188 W/m² | - |
| 1777981414 | 16.11° C | 73% | 1001.2 hPa | 0 mm | - | 87 W/m² | - |
| 1777981110 | 16.11° C | 74% | 1001.2 hPa | 0 mm | - | 104 W/m² | - |
| 1777980807 | 15.56° C | 76% | 1001.1 hPa | 0 mm | - | 104 W/m² | - |
| 1777980503 | 15.56° C | 77% | 1001 hPa | 0 mm | - | 70 W/m² | - |
| 1777980200 | 15.56° C | 78% | 1000.9 hPa | 0.51 mm | - | 36 W/m² | - |
| 1777979896 | 15° C | 80% | 1000.9 hPa | 1.27 mm | - | 53 W/m² | - |
* Rain latest hour (hover to see other rain measurements)
** Current wind speed in m/s (hover to see current wind gust speed)